Time;durP1;ratioP1;P1;durP2;ratioP2;P2;SDS_P1;SDS_P2;PMS_P1;PMS_P2;Temp;Humidity;BMP_temperature;BMP_pressure;BME280_temperature;BME280_humidity;BME280_pressure;Samples;Min_cycle;Max_cycle;Signal;HPM_P1;HPM_P2
2022/09/11 00:00:28;;;;;;;0.50;0.50;;;;;;;11.07;80.69;100706.00;5125940;28;20095;-68
2022/09/11 00:02:53;;;;;;;0.40;0.40;;;;;;;11.09;80.60;100704.28;5126186;28;20051;-68
2022/09/11 00:05:19;;;;;;;0.40;0.40;;;;;;;11.04;80.63;100703.44;5125646;28;20119;-68
2022/09/11 00:07:46;;;;;;;0.40;0.40;;;;;;;11.00;80.73;100713.00;5125879;28;20043;-68
2022/09/11 00:10:11;;;;;;;0.50;0.50;;;;;;;11.00;80.89;100713.00;5126074;28;20020;-68
2022/09/11 00:12:37;;;;;;;0.40;0.40;;;;;;;10.97;81.17;100709.56;5125624;28;20202;-67
2022/09/11 00:15:02;;;;;;;0.47;0.47;;;;;;;10.99;81.06;100713.00;5128573;28;20577;-67
2022/09/11 00:17:28;;;;;;;0.40;0.40;;;;;;;10.95;81.50;100703.50;5129986;28;20023;-68
2022/09/11 00:19:53;;;;;;;0.40;0.40;;;;;;;10.99;81.73;100705.22;5111593;28;20024;-68
2022/09/11 00:22:18;;;;;;;0.40;0.40;;;;;;;11.03;81.51;100714.72;5111428;28;20463;-67
2022/09/11 00:24:44;;;;;;;0.40;0.40;;;;;;;11.07;81.59;100720.75;5129739;28;20113;-68
2022/09/11 00:27:09;;;;;;;0.40;0.40;;;;;;;11.09;81.48;100722.47;5129598;28;20024;-68
2022/09/11 00:29:34;;;;;;;0.40;0.40;;;;;;;11.08;81.18;100715.56;5129546;28;20123;-68
2022/09/11 00:32:00;;;;;;;0.40;0.40;;;;;;;11.08;81.12;100706.88;5130065;28;20079;-68
2022/09/11 00:34:25;;;;;;;0.40;0.40;;;;;;;11.14;81.12;100731.09;5129496;28;20072;-68
2022/09/11 00:36:51;;;;;;;0.40;0.40;;;;;;;11.11;81.50;100725.06;5129668;28;20073;-68
2022/09/11 00:39:16;;;;;;;0.30;0.30;;;;;;;11.12;81.26;100731.97;5129672;28;20027;-68
2022/09/11 00:41:44;;;;;;;1.08;1.02;;;;;;;11.11;81.30;100728.53;5129565;28;20023;-68
2022/09/11 00:44:14;;;;;;;6.10;2.55;;;;;;;11.16;81.20;100731.09;5129545;28;20107;-68
2022/09/11 00:46:52;;;;;;;0.40;0.40;;;;;;;11.15;81.37;100725.03;5130254;28;20039;-68
2022/09/11 00:49:31;;;;;;;0.40;0.40;;;;;;;11.14;81.31;100715.50;5141363;28;20046;-68
2022/09/11 00:52:10;;;;;;;0.40;0.40;;;;;;;11.21;81.48;100731.06;5130543;28;20021;-68
2022/09/11 00:54:55;;;;;;;0.40;0.40;;;;;;;11.23;81.57;100729.34;5110961;28;20020;-67
2022/09/11 00:57:23;;;;;;;0.40;0.40;;;;;;;11.27;81.71;100728.44;5129889;28;20031;-67
2022/09/11 00:59:51;;;;;;;0.40;0.40;;;;;;;11.29;81.68;100731.91;5129397;28;20028;-68
2022/09/11 01:02:20;;;;;;;0.40;0.40;;;;;;;11.30;81.83;100724.94;5110708;28;20084;-68
2022/09/11 01:04:45;;;;;;;0.50;0.50;;;;;;;11.25;82.06;100730.16;5129154;28;20077;-69
2022/09/11 01:07:14;;;;;;;0.30;0.30;;;;;;;11.29;82.27;100726.69;5128896;28;20057;-68
2022/09/11 01:09:40;;;;;;;0.40;0.40;;;;;;;11.26;82.35;100727.56;5129089;28;20032;-68
2022/09/11 01:12:18;;;;;;;0.40;0.40;;;;;;;11.31;82.55;100729.28;5129045;28;20031;-68
2022/09/11 01:14:54;;;;;;;0.40;0.40;;;;;;;11.30;82.46;100723.22;5110054;28;20085;-67
2022/09/11 01:17:19;;;;;;;0.40;0.40;;;;;;;11.31;82.29;100722.34;5111594;28;20062;-69
2022/09/11 01:20:12;;;;;;;0.40;0.40;;;;;;;11.35;82.44;100728.38;5129325;28;20024;-69
2022/09/11 01:23:03;;;;;;;0.40;0.40;;;;;;;11.38;82.34;100726.63;5129327;28;20027;-69
2022/09/11 01:25:35;;;;;;;0.40;0.40;;;;;;;11.45;82.32;100717.06;5128029;28;20038;-69
2022/09/11 01:28:09;;;;;;;0.50;0.50;;;;;;;11.44;82.23;100725.72;5128598;28;20098;-68
2022/09/11 01:30:40;;;;;;;0.40;0.40;;;;;;;11.45;82.23;100721.38;5128297;28;20055;-69
2022/09/11 01:33:17;;;;;;;0.40;0.40;;;;;;;11.51;82.19;100729.16;5128284;28;20137;-69
2022/09/11 01:36:04;;;;;;;0.40;0.40;;;;;;;11.50;82.29;100728.28;5128217;28;20039;-69
2022/09/11 01:38:53;;;;;;;0.40;0.40;;;;;;;11.53;82.40;100730.00;5127952;28;20043;-69
2022/09/11 01:41:33;;;;;;;0.40;0.40;;;;;;;11.56;82.43;100722.19;5127066;28;20027;-69
2022/09/11 01:44:12;;;;;;;0.40;0.40;;;;;;;11.51;82.39;100711.81;5126777;28;20020;-70
2022/09/11 01:46:46;;;;;;;0.50;0.50;;;;;;;11.53;82.67;100720.44;5127027;28;20048;-69
2022/09/11 01:49:30;;;;;;;0.40;0.40;;;;;;;11.55;82.43;100723.03;5109788;28;20126;-69
2022/09/11 01:52:01;;;;;;;0.40;0.40;;;;;;;11.56;82.35;100719.59;5127967;28;20035;-69
2022/09/11 01:54:32;;;;;;;0.50;0.50;;;;;;;11.57;82.46;100726.50;5109489;28;20050;-69
2022/09/11 01:57:06;;;;;;;0.40;0.40;;;;;;;11.58;82.30;100728.22;5127982;28;20268;-69
2022/09/11 01:59:46;;;;;;;0.60;0.60;;;;;;;11.59;82.37;100729.09;5108957;28;20123;-69
2022/09/11 02:02:20;;;;;;;0.40;0.40;;;;;;;11.62;82.41;100729.94;5127647;28;20033;-69
2022/09/11 02:04:52;;;;;;;0.40;0.40;;;;;;;11.64;82.33;100723.00;5127336;28;20032;-68
2022/09/11 02:07:22;;;;;;;;;;;;;;;11.67;82.38;100729.03;5127816;28;20029;-69
2022/09/11 02:10:10;;;;;;;0.40;0.40;;;;;;;11.65;82.25;100718.63;5127632;28;20024;-68
2022/09/11 02:12:57;;;;;;;0.40;0.40;;;;;;;11.68;82.14;100722.97;5127530;28;20023;-69
2022/09/11 02:15:31;;;;;;;0.40;0.40;;;;;;;11.72;81.97;100724.66;5127217;28;20018;-69
2022/09/11 02:18:04;;;;;;;0.40;0.40;;;;;;;11.69;82.25;100724.69;5127531;28;20027;-71
2022/09/11 02:20:30;;;;;;;0.40;0.40;;;;;;;11.68;82.21;100720.38;5127429;28;20031;-69
2022/09/11 02:22:56;;;;;;;0.40;0.40;;;;;;;11.68;82.10;100717.75;5127322;28;20043;-70
2022/09/11 02:25:22;;;;;;;0.40;0.40;;;;;;;11.63;82.10;100702.16;5127088;28;20015;-69
2022/09/11 02:27:47;;;;;;;0.38;0.38;;;;;;;11.69;82.31;100716.88;5127028;28;20042;-69
2022/09/11 02:30:13;;;;;;;0.40;0.40;;;;;;;11.69;82.59;100714.28;5127163;28;20024;-70
2022/09/11 02:32:42;;;;;;;0.57;0.57;;;;;;;11.71;82.41;100718.59;5126992;28;20016;-70
2022/09/11 02:35:09;;;;;;;0.30;0.30;;;;;;;11.73;82.83;100718.56;5126887;28;20022;-69
2022/09/11 02:37:53;;;;;;;1.02;1.02;;;;;;;11.75;82.87;100716.81;5126722;28;20020;-69
2022/09/11 02:40:30;;;;;;;0.38;0.38;;;;;;;11.78;82.71;100722.88;5108463;28;20050;-67
2022/09/11 02:43:21;;;;;;;0.40;0.40;;;;;;;11.78;82.95;100709.88;5126534;28;20095;-68
2022/09/11 02:46:02;;;;;;;0.57;0.57;;;;;;;11.78;83.08;100709.00;5126822;28;20043;-67
2022/09/11 02:48:35;;;;;;;0.40;0.40;;;;;;;11.81;83.22;100708.97;5126667;28;20067;-67
2022/09/11 02:51:31;;;;;;;0.40;0.40;;;;;;;11.81;83.19;100714.16;5126822;28;20023;-68
2022/09/11 02:54:12;;;;;;;0.40;0.40;;;;;;;11.81;83.50;100703.75;5126922;28;20020;-68
2022/09/11 02:56:55;;;;;;;0.40;0.40;;;;;;;11.80;83.16;100717.66;5126497;28;20028;-67
2022/09/11 02:59:25;;;;;;;0.40;0.40;;;;;;;11.79;83.32;100715.91;5108049;28;20024;-68
2022/09/11 03:01:53;;;;;;;0.40;0.40;;;;;;;11.79;83.36;100718.50;5126526;28;20057;-67
2022/09/11 03:04:21;;;;;;;0.40;0.40;;;;;;;11.79;83.38;100715.91;5107986;28;20085;-67
2022/09/11 03:06:47;;;;;;;0.98;0.57;;;;;;;11.78;83.23;100719.41;5126287;28;20024;-67
2022/09/11 03:09:13;;;;;;;0.40;0.40;;;;;;;11.77;83.41;100731.53;5107998;28;20076;-67
2022/09/11 03:11:38;;;;;;;0.40;0.40;;;;;;;11.77;83.34;100735.91;5108059;28;20482;-67
2022/09/11 03:14:03;;;;;;;0.40;0.40;;;;;;;11.70;83.30;100726.41;5107752;28;20028;-67
2022/09/11 03:16:29;;;;;;;0.40;0.40;;;;;;;11.72;83.49;100720.31;5126142;28;20032;-67
2022/09/11 03:18:54;;;;;;;0.40;0.40;;;;;;;11.68;83.51;100726.41;5126178;28;20023;-68
2022/09/11 03:21:19;;;;;;;0.40;0.40;;;;;;;11.66;83.62;100715.19;5126183;28;20077;-67
2022/09/11 03:23:45;;;;;;;0.40;0.40;;;;;;;11.61;83.58;100716.94;5126114;28;20073;-68
2022/09/11 03:26:10;;;;;;;0.40;0.40;;;;;;;11.60;83.54;100720.41;5125800;28;20058;-67
2022/09/11 03:28:35;;;;;;;0.40;0.40;;;;;;;11.55;83.30;100712.63;5124805;28;20023;-68
2022/09/11 03:31:01;;;;;;;0.50;0.50;;;;;;;11.55;83.38;100722.19;5125393;28;20023;-67
2022/09/11 03:33:27;;;;;;;0.40;0.40;;;;;;;11.51;83.48;100716.13;5125994;28;20019;-67
2022/09/11 03:35:53;;;;;;;0.40;0.40;;;;;;;11.49;83.33;100712.69;5107521;28;20024;-67
2022/09/11 03:38:19;;;;;;;0.40;0.40;;;;;;;11.50;83.24;100714.44;5126041;28;20019;-68
2022/09/11 03:40:44;;;;;;;0.57;0.57;;;;;;;11.44;83.40;100714.47;5125975;28;20122;-68
2022/09/11 03:43:15;;;;;;;0.40;0.40;;;;;;;11.37;83.40;100714.50;5125603;28;20119;-68
2022/09/11 03:45:41;;;;;;;0.40;0.40;;;;;;;11.39;83.71;100717.94;5125767;28;20065;-68
2022/09/11 03:48:06;;;;;;;0.40;0.40;;;;;;;11.35;83.88;100716.25;5125521;28;20126;-68
2022/09/11 03:50:32;;;;;;;0.40;0.40;;;;;;;11.31;83.77;100722.34;5125574;28;20023;-68
2022/09/11 03:52:57;;;;;;;0.55;0.55;;;;;;;11.35;83.92;100725.78;5125835;28;20034;-68
2022/09/11 03:55:23;;;;;;;0.40;0.40;;;;;;;11.31;83.96;100731.88;5125675;28;20023;-68
2022/09/11 03:57:48;;;;;;;0.40;0.40;;;;;;;11.27;84.30;100738.81;5125736;28;20057;-68
2022/09/11 04:00:14;;;;;;;0.40;0.40;;;;;;;11.24;84.39;100733.66;5125638;28;20049;-68
2022/09/11 04:02:40;;;;;;;0.40;0.40;;;;;;;11.22;84.26;100733.66;5125738;28;20062;-68
2022/09/11 04:05:07;;;;;;;0.40;0.40;;;;;;;11.17;84.24;100727.63;5125595;28;20051;-68
2022/09/11 04:07:33;;;;;;;0.40;0.40;;;;;;;11.14;84.21;100718.13;5125639;28;20034;-68
2022/09/11 04:09:58;;;;;;;0.38;0.38;;;;;;;11.13;84.65;100728.53;5125508;28;20048;-67
2022/09/11 04:12:24;;;;;;;1.50;1.48;;;;;;;11.12;84.76;100734.56;5125720;28;20031;-67
2022/09/11 04:14:49;;;;;;;0.40;0.40;;;;;;;11.11;84.97;100732.84;5125313;28;20041;-68
2022/09/11 04:17:15;;;;;;;0.35;0.35;;;;;;;11.09;84.99;100732.84;5125629;28;20023;-67
2022/09/11 04:19:41;;;;;;;0.40;0.40;;;;;;;11.08;84.96;100731.16;5125455;28;20035;-68
2022/09/11 04:22:06;;;;;;;0.40;0.40;;;;;;;11.10;85.00;100726.78;5125559;28;20027;-68
2022/09/11 04:24:32;;;;;;;0.40;0.40;;;;;;;11.04;85.14;100726.81;5125383;28;20024;-68
2022/09/11 04:26:59;;;;;;;0.40;0.40;;;;;;;11.07;84.94;100726.81;5125339;28;20023;-67
2022/09/11 04:29:25;;;;;;;0.40;0.40;;;;;;;11.07;85.10;100720.75;5125280;28;20397;-67
2022/09/11 04:31:51;;;;;;;0.40;0.40;;;;;;;11.03;85.06;100715.59;5125290;28;20044;-67
2022/09/11 04:34:16;;;;;;;0.40;0.40;;;;;;;11.04;85.00;100716.44;5125628;28;20019;-67
2022/09/11 04:36:42;;;;;;;0.60;0.60;;;;;;;11.05;85.11;100712.97;5125359;28;20123;-67
2022/09/11 04:39:08;;;;;;;0.70;0.70;;;;;;;11.07;85.08;100708.63;5125587;28;20020;-68
2022/09/11 04:41:33;;;;;;;0.40;0.40;;;;;;;11.10;85.15;100712.94;5125348;28;20068;-68
2022/09/11 04:43:59;;;;;;;0.40;0.40;;;;;;;11.10;85.36;100699.97;5124979;28;20035;-68
2022/09/11 04:46:25;;;;;;;0.40;0.40;;;;;;;11.12;85.41;100709.47;5124945;28;20019;-68
2022/09/11 04:48:54;;;;;;;0.38;0.38;;;;;;;11.13;85.70;100710.34;5125149;28;20020;-68
2022/09/11 04:51:22;;;;;;;0.40;0.40;;;;;;;11.15;85.82;100714.63;5125151;28;20028;-67
2022/09/11 04:53:49;;;;;;;0.47;0.47;;;;;;;11.16;85.98;100720.72;5125177;28;20055;-67
2022/09/11 04:56:15;;;;;;;0.38;0.38;;;;;;;11.20;86.10;100716.38;5125056;28;20054;-67
2022/09/11 04:58:41;;;;;;;0.40;0.40;;;;;;;11.31;86.40;100724.09;5125089;28;20035;-67
2022/09/11 05:01:15;;;;;;;0.40;0.40;;;;;;;11.52;86.81;100728.25;5126347;28;20016;-68
2022/09/11 05:03:42;;;;;;;0.50;0.50;;;;;;;11.77;87.33;100736.72;5128688;28;20023;-67
2022/09/11 05:06:10;;;;;;;0.40;0.40;;;;;;;12.01;87.64;100733.97;5128649;28;20552;-67
2022/09/11 05:08:36;;;;;;;1.38;1.38;;;;;;;12.27;87.90;100731.13;5128824;28;20019;-67
2022/09/11 05:11:04;;;;;;;0.40;0.40;;;;;;;12.64;88.43;100740.28;5129064;28;20056;-66
2022/09/11 05:13:33;;;;;;;1.08;1.08;;;;;;;13.01;88.47;100731.13;5128773;28;20024;-67
2022/09/11 05:16:08;;;;;;;0.88;0.88;;;;;;;13.16;87.62;100724.00;5128681;28;20016;-67
2022/09/11 05:18:33;;;;;;;0.30;0.30;;;;;;;13.36;86.86;100731.53;5128896;28;20024;-67
2022/09/11 05:21:06;;;;;;;0.30;0.30;;;;;;;13.47;86.77;100727.88;5128785;28;20024;-67
2022/09/11 05:23:32;;;;;;;0.70;0.70;;;;;;;13.72;86.86;100730.97;5128559;28;20024;-67
2022/09/11 05:25:59;;;;;;;0.30;0.30;;;;;;;14.15;87.57;100735.50;5128499;28;20034;-67
2022/09/11 05:28:28;;;;;;;1.08;1.08;;;;;;;14.51;85.86;100743.53;5128452;28;20090;-67
2022/09/11 05:30:54;;;;;;;0.30;0.30;;;;;;;14.96;87.24;100741.78;5128514;28;20273;-67
2022/09/11 05:33:24;;;;;;;0.30;0.30;;;;;;;15.04;84.77;100741.63;5128622;28;20408;-67
2022/09/11 05:35:50;;;;;;;0.30;0.30;;;;;;;14.97;84.14;100746.13;5128413;28;20027;-68
2022/09/11 05:38:17;;;;;;;0.75;0.75;;;;;;;14.76;82.94;100745.63;5128395;28;20031;-68
2022/09/11 05:40:50;;;;;;;0.30;0.30;;;;;;;14.44;81.60;100758.44;5128474;28;20043;-68
2022/09/11 05:43:16;;;;;;;0.30;0.30;;;;;;;13.97;80.97;100755.81;5128161;28;20053;-67
2022/09/11 05:45:43;;;;;;;0.40;0.40;;;;;;;13.57;81.13;100755.59;5128222;28;20489;-68
2022/09/11 05:48:09;;;;;;;0.30;0.30;;;;;;;13.47;82.23;100748.75;5127916;28;20078;-68
2022/09/11 05:50:35;;;;;;;0.30;0.30;;;;;;;13.48;83.01;100742.66;5109944;28;20039;-68
2022/09/11 05:53:00;;;;;;;0.30;0.30;;;;;;;13.57;82.46;100749.50;5128055;28;20031;-68
2022/09/11 05:55:25;;;;;;;0.40;0.40;;;;;;;13.61;81.96;100752.03;5127892;28;20048;-68
2022/09/11 05:57:52;;;;;;;0.30;0.30;;;;;;;13.53;81.83;100745.22;5127899;28;20110;-68
2022/09/11 06:00:17;;;;;;;0.30;0.30;;;;;;;13.44;81.58;100751.38;5127771;28;20023;-68
2022/09/11 06:02:44;;;;;;;0.30;0.30;;;;;;;13.36;81.59;100752.38;5127948;28;20020;-68
2022/09/11 06:05:09;;;;;;;0.30;0.30;;;;;;;13.32;80.88;100760.28;5127537;28;20049;-67
2022/09/11 06:07:35;;;;;;;0.30;0.30;;;;;;;13.19;80.54;100764.78;5127812;28;20079;-68
2022/09/11 06:10:00;;;;;;;0.30;0.30;;;;;;;13.10;80.64;100763.19;5127954;28;20023;-68
2022/09/11 06:12:26;;;;;;;0.30;0.30;;;;;;;13.01;80.53;100764.16;5127274;28;20051;-68
2022/09/11 06:14:51;;;;;;;0.32;0.32;;;;;;;12.96;80.51;100758.13;5127542;28;20421;-68
2022/09/11 06:17:17;;;;;;;0.30;0.30;;;;;;;12.89;80.34;100768.63;5127531;28;20027;-68
2022/09/11 06:19:42;;;;;;;0.30;0.30;;;;;;;12.81;80.11;100767.00;5127638;28;20048;-68
2022/09/11 06:22:07;;;;;;;0.30;0.30;;;;;;;12.76;80.35;100767.91;5127618;28;20028;-69
2022/09/11 06:24:33;;;;;;;0.40;0.40;;;;;;;12.69;80.39;100765.41;5127415;28;20026;-68
2022/09/11 06:26:59;;;;;;;2.33;0.95;;;;;;;12.72;80.17;100781.00;5127237;28;20031;-68
2022/09/11 06:29:24;;;;;;;0.68;0.68;;;;;;;12.64;80.58;100774.13;5127317;28;20019;-68
2022/09/11 06:31:50;;;;;;;0.82;0.82;;;;;;;12.64;80.43;100776.75;5108948;28;20096;-68
2022/09/11 06:34:18;;;;;;;1.05;1.02;;;;;;;12.62;80.58;100775.88;5127196;28;20083;-68
2022/09/11 06:36:44;;;;;;;0.32;0.32;;;;;;;12.66;80.87;100781.06;5127130;28;20025;-68
2022/09/11 06:39:09;;;;;;;0.40;0.40;;;;;;;12.68;80.60;100784.53;5126996;28;20024;-68
2022/09/11 06:41:34;;;;;;;0.30;0.30;;;;;;;12.71;80.47;100792.28;5127019;28;20391;-68
2022/09/11 06:44:00;;;;;;;0.40;0.40;;;;;;;12.73;80.44;100785.34;5126906;28;20023;-68
2022/09/11 06:46:25;;;;;;;0.40;0.40;;;;;;;12.66;80.58;100796.69;5126714;28;20042;-67
2022/09/11 06:48:52;;;;;;;0.40;0.40;;;;;;;12.63;80.61;100792.38;5126984;28;20023;-67
2022/09/11 06:51:19;;;;;;;0.30;0.30;;;;;;;12.63;80.48;100793.25;5126999;28;20024;-68
2022/09/11 06:53:48;;;;;;;0.40;0.40;;;;;;;12.64;80.49;100796.69;5126802;28;20030;-67
2022/09/11 06:56:16;;;;;;;0.60;0.60;;;;;;;12.64;80.73;100802.78;5126648;28;20146;-68
2022/09/11 06:58:44;;;;;;;0.50;0.50;;;;;;;12.63;80.84;100793.25;5126412;28;20023;-68
2022/09/11 07:01:12;;;;;;;0.40;0.40;;;;;;;12.65;80.72;100798.44;5126724;28;20062;-68
2022/09/11 07:03:42;;;;;;;0.43;0.43;;;;;;;12.70;81.04;100804.44;5126499;28;20020;-68
2022/09/11 07:06:08;;;;;;;0.38;0.38;;;;;;;12.78;80.81;100806.97;5126326;28;20023;-69
2022/09/11 07:08:33;;;;;;;0.30;0.30;;;;;;;12.86;80.96;100801.69;5126808;28;20110;-67
2022/09/11 07:11:06;;;;;;;0.50;0.50;;;;;;;12.97;80.82;100806.78;5126740;28;20026;-68
2022/09/11 07:13:31;;;;;;;0.30;0.30;;;;;;;13.10;80.90;100816.16;5126578;28;20031;-68
2022/09/11 07:16:01;;;;;;;0.30;0.30;;;;;;;13.16;80.51;100807.41;5126466;28;20012;-69
2022/09/11 07:18:32;;;;;;;0.40;0.40;;;;;;;13.17;80.45;100795.22;5126717;28;20023;-68
2022/09/11 07:20:58;;;;;;;0.40;0.40;;;;;;;13.24;80.48;100794.28;5126583;28;20094;-68
2022/09/11 07:23:24;;;;;;;0.30;0.30;;;;;;;13.34;80.43;100801.06;5125720;28;20031;-67
2022/09/11 07:25:49;;;;;;;0.30;0.30;;;;;;;13.33;80.37;100799.34;5126088;28;20549;-68
2022/09/11 07:28:15;;;;;;;0.40;0.40;;;;;;;13.30;80.15;100795.94;5126271;28;20043;-67
2022/09/11 07:30:40;;;;;;;0.30;0.30;;;;;;;13.37;80.17;100795.81;5126621;28;20083;-68
2022/09/11 07:33:05;;;;;;;0.40;0.40;;;;;;;13.40;80.05;100789.72;5126170;28;20019;-67
2022/09/11 07:35:31;;;;;;;0.40;0.40;;;;;;;13.38;80.08;100781.91;5126343;28;20348;-68
2022/09/11 07:37:57;;;;;;;0.30;0.30;;;;;;;13.46;80.35;100794.84;5108242;28;20031;-68
2022/09/11 07:40:22;;;;;;;0.30;0.30;;;;;;;13.62;80.31;100794.66;5126911;28;20106;-68
2022/09/11 07:42:48;;;;;;;0.30;0.30;;;;;;;13.82;80.39;100788.25;5126914;28;20107;-69
2022/09/11 07:45:13;;;;;;;0.30;0.30;;;;;;;14.04;80.38;100803.56;5125991;28;20032;-69
2022/09/11 07:47:38;;;;;;;1.35;1.20;;;;;;;14.26;79.81;100793.63;5126359;28;20048;-68
2022/09/11 07:50:04;;;;;;;0.30;0.30;;;;;;;14.42;79.62;100796.81;5126071;28;20024;-67
2022/09/11 07:52:31;;;;;;;0.40;0.40;;;;;;;14.49;78.89;100797.56;5125891;28;20059;-67
2022/09/11 07:54:56;;;;;;;0.30;0.30;;;;;;;14.66;78.55;100799.00;5125744;28;20020;-67
2022/09/11 07:57:23;;;;;;;0.30;0.30;;;;;;;14.80;78.89;100807.47;5125836;28;20031;-68
2022/09/11 07:59:48;;;;;;;0.77;0.77;;;;;;;14.89;77.37;100800.34;5125848;28;20020;-67
2022/09/11 08:02:14;;;;;;;0.30;0.30;;;;;;;14.89;76.90;100805.56;5126195;28;20027;-67
2022/09/11 08:04:39;;;;;;;1.95;1.02;;;;;;;14.91;77.13;100801.16;5125946;28;20049;-68
2022/09/11 08:07:05;;;;;;;0.45;0.45;;;;;;;15.00;76.43;100798.34;5125851;28;20031;-68
2022/09/11 08:09:31;;;;;;;0.30;0.30;;;;;;;15.10;76.92;100796.41;5126134;28;20016;-68
2022/09/11 08:11:57;;;;;;;0.30;0.30;;;;;;;15.30;77.11;100795.13;5125978;28;20047;-68
2022/09/11 08:14:26;;;;;;;0.30;0.30;;;;;;;15.58;76.51;100795.34;5125878;28;20079;-68
2022/09/11 08:16:53;;;;;;;0.75;0.75;;;;;;;15.82;76.50;100797.41;5125802;28;20410;-67
2022/09/11 08:19:21;;;;;;;0.30;0.30;;;;;;;16.10;75.27;100802.03;5107628;28;20099;-67
2022/09/11 08:21:46;;;;;;;0.65;0.65;;;;;;;16.21;74.97;100801.75;5125837;28;20027;-67
2022/09/11 08:24:13;;;;;;;0.30;0.30;;;;;;;16.38;74.79;100798.69;5125519;28;20062;-68
2022/09/11 08:26:39;;;;;;;0.30;0.30;;;;;;;16.45;74.07;100804.63;5107334;28;20047;-67
2022/09/11 08:29:05;;;;;;;0.30;0.30;;;;;;;16.59;73.81;100804.25;5125615;28;20541;-68
2022/09/11 08:31:32;;;;;;;0.30;0.30;;;;;;;16.59;72.97;100802.50;5125879;28;20024;-68
2022/09/11 08:33:58;;;;;;;0.77;0.77;;;;;;;16.60;72.50;100805.94;5125671;28;20023;-67
2022/09/11 08:36:23;;;;;;;0.73;0.73;;;;;;;16.57;72.59;100808.66;5128745;28;20448;-67
2022/09/11 08:38:50;;;;;;;0.45;0.45;;;;;;;16.59;69.79;100801.63;5129196;28;20023;-68
2022/09/11 08:41:49;;;;;;;0.30;0.30;;;;;;;16.37;70.24;100810.06;5129579;28;20083;-67
2022/09/11 08:44:43;;;;;;;0.35;0.35;;;;;;;16.14;70.39;100805.41;5128993;28;20494;-68
2022/09/11 08:47:17;;;;;;;0.30;0.30;;;;;;;16.03;70.02;100800.44;5129008;28;20051;-67
2022/09/11 08:49:50;;;;;;;0.30;0.30;;;;;;;16.19;70.59;100803.53;5129472;28;20059;-68
2022/09/11 08:52:15;;;;;;;0.40;0.40;;;;;;;16.35;69.53;100807.50;5129231;28;20057;-69
2022/09/11 08:54:44;;;;;;;0.32;0.32;;;;;;;16.69;68.95;100789.13;5129379;28;20023;-69
2022/09/11 08:57:38;;;;;;;0.30;0.30;;;;;;;16.87;69.26;100813.09;5129353;28;20463;-68
2022/09/11 09:00:15;;;;;;;0.30;0.30;;;;;;;17.08;68.92;100807.25;5129177;28;20027;-70
2022/09/11 09:02:56;;;;;;;0.77;0.77;;;;;;;17.30;69.80;100809.25;5140071;28;20027;-69
2022/09/11 09:05:27;;;;;;;0.30;0.30;;;;;;;17.32;69.03;100809.19;5140669;28;20011;-69
2022/09/11 09:08:38;;;;;;;0.65;0.65;;;;;;;17.27;68.86;100811.13;5140618;28;20024;-68
2022/09/11 09:11:09;;;;;;;0.52;0.52;;;;;;;17.12;68.56;100812.41;5129674;28;20032;-68
2022/09/11 09:13:44;;;;;;;0.40;0.40;;;;;;;17.05;68.83;100817.81;5128273;28;20030;-68
2022/09/11 09:16:34;;;;;;;0.30;0.30;;;;;;;17.07;69.60;100817.78;5110520;28;20024;-69
2022/09/11 09:19:31;;;;;;;0.30;0.30;;;;;;;17.25;69.48;100812.91;5129117;28;20023;-69
2022/09/11 09:22:19;;;;;;;0.30;0.30;;;;;;;17.68;66.78;100821.25;5128356;28;20042;-70
2022/09/11 09:24:48;;;;;;;0.35;0.35;;;;;;;17.56;66.68;100819.84;5128566;28;20024;-70
2022/09/11 09:27:18;;;;;;;0.30;0.30;;;;;;;17.45;67.55;100815.81;5128294;28;20024;-70
2022/09/11 09:29:48;;;;;;;0.30;0.30;;;;;;;17.43;66.57;100825.47;5128128;28;20029;-69
2022/09/11 09:32:20;;;;;;;0.40;0.40;;;;;;;17.40;66.02;100828.19;5128469;28;20129;-69
2022/09/11 09:34:49;;;;;;;0.30;0.30;;;;;;;17.32;64.88;100820.56;5109867;28;20016;-70
2022/09/11 09:37:22;;;;;;;0.30;0.30;;;;;;;17.19;65.38;100820.06;5128200;28;20028;-70
2022/09/11 09:39:49;;;;;;;0.30;0.30;;;;;;;17.39;64.13;100826.50;5128551;28;20023;-71
2022/09/11 09:42:27;;;;;;;0.30;0.30;;;;;;;17.21;64.62;100827.88;5128202;28;20024;-71
2022/09/11 09:45:22;;;;;;;0.30;0.30;;;;;;;17.08;63.82;100823.00;5127906;28;20075;-71
2022/09/11 09:47:48;;;;;;;0.30;0.30;;;;;;;16.91;65.04;100820.84;5126991;28;20072;-70
2022/09/11 09:50:23;;;;;;;0.30;0.30;;;;;;;17.05;66.21;100819.56;5128160;28;20095;-71
2022/09/11 09:52:49;;;;;;;0.30;0.30;;;;;;;17.29;66.63;100810.16;5128054;28;20019;-70
2022/09/11 09:55:17;;;;;;;0.20;0.20;;;;;;;17.59;66.38;100817.13;5128085;28;20034;-70
2022/09/11 09:57:44;;;;;;;0.30;0.30;;;;;;;17.75;64.83;100822.75;5109564;28;20039;-70
2022/09/11 10:00:09;;;;;;;0.30;0.30;;;;;;;17.69;64.66;100820.31;5127588;28;20072;-70
2022/09/11 10:02:54;;;;;;;0.30;0.30;;;;;;;17.56;65.06;100823.34;5127752;28;20042;-69
2022/09/11 10:05:42;;;;;;;0.55;0.55;;;;;;;17.61;65.60;100817.94;5109349;28;20032;-70
2022/09/11 10:08:25;;;;;;;0.30;0.30;;;;;;;17.71;65.04;100831.66;5127792;28;20031;-71
2022/09/11 10:10:57;;;;;;;0.30;0.30;;;;;;;17.69;65.11;100825.56;5127583;28;20019;-69
2022/09/11 10:13:27;;;;;;;0.30;0.30;;;;;;;17.65;65.50;100829.22;5127345;28;20038;-70
2022/09/11 10:15:58;;;;;;;0.30;0.30;;;;;;;17.70;65.43;100816.78;5109091;28;20024;-71
2022/09/11 10:18:36;;;;;;;0.40;0.40;;;;;;;17.83;65.71;100818.13;5127811;28;20015;-70
2022/09/11 10:21:10;;;;;;;0.30;0.30;;;;;;;17.97;64.90;100822.06;5127588;28;20100;-70
2022/09/11 10:23:53;;;;;;;0.30;0.30;;;;;;;18.05;65.13;100814.78;5127452;28;20083;-70
2022/09/11 10:26:32;;;;;;;0.30;0.30;;;;;;;18.22;65.04;100823.91;5127072;28;20049;-70
2022/09/11 10:29:12;;;;;;;0.30;0.30;;;;;;;18.55;64.59;100822.78;5126957;28;20034;-70
2022/09/11 10:31:39;;;;;;;0.30;0.30;;;;;;;18.88;64.42;100821.63;5127536;28;20034;-70
2022/09/11 10:34:06;;;;;;;0.30;0.30;;;;;;;19.03;64.17;100812.28;5127059;28;20106;-70
2022/09/11 10:36:33;;;;;;;0.30;0.30;;;;;;;19.15;63.19;100821.53;5127030;28;20087;-70
2022/09/11 10:39:00;;;;;;;0.30;0.30;;;;;;;19.17;62.54;100819.72;5108914;28;20178;-70
2022/09/11 10:41:27;;;;;;;0.30;0.30;;;;;;;18.99;62.34;100816.81;5127134;28;20087;-70
2022/09/11 10:44:00;;;;;;;0.30;0.30;;;;;;;18.87;62.74;100809.38;5108341;28;20053;-70
2022/09/11 10:46:33;;;;;;;0.30;0.30;;;;;;;18.97;62.72;100813.38;5126573;28;20030;-70
2022/09/11 10:49:05;;;;;;;0.20;0.20;;;;;;;19.18;60.50;100824.91;5126931;28;20049;-71
2022/09/11 10:51:33;;;;;;;0.30;0.30;;;;;;;19.14;60.18;100814.53;5108555;28;20030;-71
2022/09/11 10:54:19;;;;;;;0.20;0.20;;;;;;;19.28;60.00;100804.34;5108344;28;20027;-71
2022/09/11 10:57:18;;;;;;;0.30;0.30;;;;;;;19.36;59.85;100808.47;5126701;28;20051;-70
2022/09/11 10:59:49;;;;;;;0.20;0.20;;;;;;;19.41;59.65;100817.06;5126453;28;20023;-70
2022/09/11 11:02:33;;;;;;;0.30;0.30;;;;;;;19.19;59.58;100813.47;5126707;28;20041;-70
2022/09/11 11:05:19;;;;;;;0.30;0.30;;;;;;;19.08;60.66;100818.25;5108096;28;20087;-71
2022/09/11 11:08:15;;;;;;;0.22;0.22;;;;;;;19.15;59.74;100811.00;5126468;28;20091;-71
2022/09/11 11:10:59;;;;;;;0.20;0.20;;;;;;;19.23;59.85;100808.09;5108070;28;20024;-70
2022/09/11 11:13:52;;;;;;;0.52;0.52;;;;;;;19.99;60.49;100799.78;5126274;28;20023;-70
2022/09/11 11:16:44;;;;;;;0.20;0.20;;;;;;;21.03;59.34;100804.16;5126182;28;20045;-70
2022/09/11 11:19:36;;;;;;;0.93;0.93;;;;;;;21.59;58.41;100808.59;5126306;28;20031;-69
2022/09/11 11:22:17;;;;;;;;;;;;;;;21.83;58.38;100803.06;5115930;28;20046;-69
2022/09/11 11:25:03;;;;;;;0.20;0.20;;;;;;;21.81;58.55;100799.63;5125816;28;19943;-68
2022/09/11 11:27:59;;;;;;;0.20;0.20;;;;;;;21.73;57.70;100815.84;5126287;28;20093;-68
2022/09/11 11:30:46;;;;;;;0.20;0.20;;;;;;;21.58;58.47;100805.09;5125966;28;20349;-69
2022/09/11 11:33:50;;;;;;;0.20;0.20;;;;;;;21.22;57.96;100813.84;5126134;28;20028;-70
2022/09/11 11:36:35;;;;;;;0.20;0.20;;;;;;;20.58;57.77;100807.00;5103817;28;20031;-71
2022/09/11 11:39:19;;;;;;;0.20;0.20;;;;;;;20.14;58.00;100811.50;5125824;28;20035;-70
2022/09/11 11:41:53;;;;;;;0.20;0.20;;;;;;;19.75;58.96;100810.41;5125943;28;20046;-70
2022/09/11 11:44:38;;;;;;;0.20;0.20;;;;;;;19.46;58.25;100804.53;5125520;28;20083;-70